Humidity-temperature Sensor

Selected Measurement Type: Relative Humidity

 
Relative Humidity [%]     6 entries per hour
Showing data from 5/27/2017 (00:00:00 Z) to 5/26/2017 (00:01:00 Z)
Previous Next [ Day | 3-Days | 7-Days ]
First Last
Prev [ Day | 3-Days | 7-Days ] Next
First Last

Start Time:     :
End Time:     :     
Time (in GMT) :00 :50 :40 :30 :20 :10
Previous Next [ Day | 3-Days | 7-Days ]
First Last
Prev [ Day | 3-Days | 7-Days ] Next
First Last


123 => good data
MM => data is determined as missing
-- => data not received/configured
Back to Top Back to Top
5/27/2017 00:00 to 23:10 89.05 89.48 89.70 89.38 89.60 89.40
5/26/2017 23:00 to 22:10 88.51 89.07 88.87 88.77 88.65 88.61
5/26/2017 22:00 to 21:10 88.43 88.73 88.41 88.61 88.01 88.19
5/26/2017 21:00 to 20:10 87.65 88.07 87.81 87.47 88.39 88.01
5/26/2017 20:00 to 19:10 87.83 87.99 88.75 87.69 88.81 88.63
5/26/2017 19:00 to 18:10 87.99 89.03 88.95 89.30 90.50 90.78
5/26/2017 18:00 to 17:10 89.68 89.52 89.70 89.16 89.40 90.02
5/26/2017 17:00 to 16:10 89.88 89.36 89.82 89.66 89.96 90.42
5/26/2017 16:00 to 15:10 90.74 90.78 90.68 89.94 89.92 91.38
5/26/2017 15:00 to 14:10 90.50 90.34 90.62 90.90 91.02 91.36
5/26/2017 14:00 to 13:10 91.77 91.53 90.98 91.77 92.41 91.71
5/26/2017 13:00 to 12:10 91.97 91.55 92.25 92.57 93.23 93.45
5/26/2017 12:00 to 11:10 93.98 93.87 93.39 92.99 92.69 92.21
5/26/2017 11:00 to 10:10 92.09 91.93 92.23 92.31 92.53 92.91
5/26/2017 10:00 to 9:10 93.53 93.13 93.19 93.11 92.99 93.75
5/26/2017 09:00 to 8:10 94.34 93.83 93.71 93.19 93.25 92.89
5/26/2017 08:00 to 7:10 92.55 93.07 92.61 92.05 92.79 93.27
5/26/2017 07:00 to 6:10 93.79 94.10 93.91 94.14 93.53 93.15
5/26/2017 06:00 to 5:10 93.51 93.15 92.79 92.29 92.29 92.73
5/26/2017 05:00 to 4:10 93.01 93.09 93.75 93.67 94.16 93.69
5/26/2017 04:00 to 3:10 93.07 92.75 92.49 92.19 91.93 92.55
5/26/2017 03:00 to 2:10 92.39 92.37 92.61 93.05 92.85 92.81
5/26/2017 02:00 to 1:10 92.17 90.90 90.72 90.16 89.74 90.12
5/26/2017 01:00 to 0:10 89.40 89.34 89.36 89.86 90.38 91.20